createdAt,value
2023-01-29T00:04:14.512Z,4.70
2023-01-29T00:09:15.978Z,4.80
2023-01-29T00:14:17.397Z,5.22
2023-01-29T00:19:19.606Z,4.85
2023-01-29T00:24:21.067Z,4.35
2023-01-29T00:29:22.502Z,4.93
2023-01-29T00:34:23.997Z,5.43
2023-01-29T00:39:31.440Z,5.68
2023-01-29T00:44:59.073Z,5.38
2023-01-29T00:50:01.882Z,5.82
2023-01-29T00:55:04.643Z,5.82
2023-01-29T01:00:07.416Z,5.63
2023-01-29T01:05:17.907Z,6.38
2023-01-29T01:10:20.936Z,5.63
2023-01-29T01:15:23.414Z,5.82
2023-01-29T01:20:26.158Z,6.35
2023-01-29T01:25:28.055Z,6.03
2023-01-29T01:30:29.489Z,6.80
2023-01-29T01:35:30.957Z,6.43
2023-01-29T01:40:32.424Z,6.75
2023-01-29T01:45:35.345Z,6.30
2023-01-29T01:50:49.596Z,6.65
2023-01-29T01:55:53.981Z,6.35
2023-01-29T02:00:55.879Z,6.72
2023-01-29T02:06:17.827Z,6.20
2023-01-29T02:11:19.595Z,7.00
2023-01-29T02:16:21.788Z,7.55
2023-01-29T02:21:41.936Z,7.20
2023-01-29T02:31:48.312Z,7.60
2023-01-29T02:36:49.807Z,7.07
2023-01-29T02:41:54.064Z,8.00
2023-01-29T02:46:55.469Z,15.93
2023-01-29T02:52:20.222Z,30.55
2023-01-29T02:57:24.038Z,26.30
2023-01-29T03:02:44.359Z,20.17
2023-01-29T03:07:50.926Z,19.77
2023-01-29T03:13:00.125Z,20.00
2023-01-29T03:18:26.084Z,13.27
2023-01-29T03:23:52.509Z,11.13
2023-01-29T03:29:12.962Z,9.40
2023-01-29T03:34:24.103Z,8.52
2023-01-29T03:39:28.625Z,9.15
2023-01-29T03:44:40.366Z,8.55
2023-01-29T03:49:59.407Z,8.45
2023-01-29T03:55:13.104Z,9.93
2023-01-29T04:00:18.282Z,9.30
2023-01-29T04:05:21.145Z,10.23
2023-01-29T04:10:24.883Z,10.07
2023-01-29T04:15:28.383Z,10.48
2023-01-29T04:20:30.121Z,11.15
2023-01-29T04:25:34.555Z,11.02
2023-01-29T04:30:35.992Z,12.52
2023-01-29T04:36:00.021Z,12.90
2023-01-29T04:41:01.429Z,13.40
2023-01-29T04:46:09.036Z,13.60
2023-01-29T04:51:13.338Z,13.48
2023-01-29T04:56:14.834Z,14.27
2023-01-29T05:01:17.643Z,14.25
2023-01-29T05:06:21.182Z,14.68
2023-01-29T05:11:23.247Z,14.35
2023-01-29T05:16:29.966Z,14.88
2023-01-29T05:21:32.459Z,15.85
2023-01-29T05:26:53.357Z,14.57
2023-01-29T05:31:54.828Z,14.35
2023-01-29T05:36:56.367Z,15.43
2023-01-29T05:41:58.833Z,15.20
2023-01-29T05:47:02.665Z,14.85
2023-01-29T05:52:04.175Z,15.02
2023-01-29T05:57:05.603Z,14.90
2023-01-29T06:02:07.197Z,15.80
2023-01-29T06:07:08.661Z,15.45
2023-01-29T06:12:10.089Z,15.60
2023-01-29T06:17:11.533Z,15.02
2023-01-29T06:22:13.021Z,15.68
2023-01-29T06:27:14.490Z,15.23
2023-01-29T06:32:16.048Z,15.50
2023-01-29T06:37:17.494Z,16.35
2023-01-29T06:42:20.485Z,17.20
2023-01-29T06:47:22.058Z,16.17
2023-01-29T06:52:25.474Z,16.05
2023-01-29T06:57:29.040Z,15.95
2023-01-29T07:02:30.580Z,16.80
2023-01-29T07:07:32.049Z,17.65
2023-01-29T07:12:33.517Z,16.63
2023-01-29T07:17:34.982Z,16.88
2023-01-29T07:22:36.506Z,17.65
2023-01-29T07:27:37.927Z,16.45
2023-01-29T07:32:39.533Z,16.98
2023-01-29T07:37:40.941Z,17.35
2023-01-29T07:42:44.030Z,18.38
2023-01-29T07:47:45.486Z,17.15
2023-01-29T07:52:46.997Z,18.85
2023-01-29T07:57:48.502Z,19.50
2023-01-29T08:02:49.923Z,19.23
2023-01-29T08:08:06.062Z,18.48
2023-01-29T08:13:08.553Z,19.15
2023-01-29T08:18:10.159Z,18.02
2023-01-29T08:23:16.463Z,17.20
2023-01-29T08:28:17.947Z,18.75
2023-01-29T08:33:23.793Z,19.42
2023-01-29T08:43:30.518Z,17.92
2023-01-29T08:48:32.217Z,17.33
2023-01-29T08:53:33.740Z,18.83
2023-01-29T08:58:35.238Z,18.58
2023-01-29T09:03:37.046Z,17.27
2023-01-29T09:08:39.019Z,20.38
2023-01-29T09:13:40.589Z,18.73
2023-01-29T09:18:42.056Z,20.50
2023-01-29T09:23:43.549Z,18.70
2023-01-29T09:28:45.043Z,17.77
2023-01-29T09:33:46.559Z,18.83
2023-01-29T09:38:48.011Z,19.55
2023-01-29T09:43:52.020Z,19.40
2023-01-29T09:48:57.533Z,17.63
2023-01-29T09:54:06.360Z,16.83
2023-01-29T09:59:08.814Z,17.73
2023-01-29T10:04:19.234Z,16.95
2023-01-29T10:09:23.822Z,15.77
2023-01-29T10:14:37.969Z,15.57
2023-01-29T10:19:59.688Z,14.55
2023-01-29T10:25:03.099Z,13.98
2023-01-29T10:30:09.519Z,12.43
2023-01-29T10:35:18.263Z,13.10
2023-01-29T10:40:19.863Z,12.98
2023-01-29T10:45:21.292Z,13.13
2023-01-29T10:50:29.031Z,12.38
2023-01-29T10:55:30.414Z,13.32
2023-01-29T11:00:41.618Z,11.75
2023-01-29T11:06:01.925Z,11.13
2023-01-29T11:11:06.176Z,12.07
2023-01-29T11:16:08.758Z,10.98
2023-01-29T11:21:11.915Z,10.45
2023-01-29T11:26:16.959Z,9.68
2023-01-29T11:31:23.413Z,12.18
2023-01-29T11:36:32.947Z,12.90
2023-01-29T11:41:42.893Z,10.60
2023-01-29T11:51:51.534Z,12.43
2023-01-29T11:56:53.127Z,14.98
2023-01-29T12:01:54.719Z,16.35
2023-01-29T12:06:56.225Z,16.13
2023-01-29T12:12:16.355Z,16.98
2023-01-29T12:17:25.585Z,16.10
2023-01-29T12:22:39.284Z,15.23
2023-01-29T12:27:46.521Z,15.27
2023-01-29T12:32:57.961Z,14.45
2023-01-29T12:38:16.428Z,13.68
2023-01-29T12:43:19.934Z,8.93
2023-01-29T12:48:32.859Z,8.23
2023-01-29T12:53:54.706Z,7.97
2023-01-29T12:58:56.434Z,8.63
2023-01-29T13:04:11.546Z,8.18
2023-01-29T13:09:19.036Z,8.32
2023-01-29T13:14:24.558Z,7.47
2023-01-29T13:19:31.767Z,7.93
2023-01-29T13:24:38.933Z,6.70
2023-01-29T13:29:43.446Z,9.02
2023-01-29T13:34:46.588Z,11.20
2023-01-29T13:39:49.934Z,11.38
2023-01-29T13:44:52.595Z,11.88
2023-01-29T13:50:20.192Z,11.85
2023-01-29T13:55:31.173Z,13.40
2023-01-29T14:00:35.580Z,12.10
2023-01-29T14:05:39.738Z,11.60
2023-01-29T14:10:42.720Z,10.82
2023-01-29T14:16:04.085Z,8.95
2023-01-29T14:21:14.351Z,8.82
2023-01-29T14:26:18.899Z,9.23
2023-01-29T14:31:32.452Z,9.27
2023-01-29T14:36:44.688Z,10.15
2023-01-29T14:41:46.216Z,9.40
2023-01-29T14:46:47.718Z,10.02
2023-01-29T14:51:50.372Z,10.40
2023-01-29T14:56:54.888Z,11.88
2023-01-29T15:01:57.900Z,12.80
2023-01-29T15:06:59.375Z,13.77
2023-01-29T15:12:06.058Z,13.25
2023-01-29T15:17:18.168Z,14.63
2023-01-29T15:22:20.875Z,15.18
2023-01-29T15:27:22.381Z,15.45
2023-01-29T15:32:30.772Z,14.45
2023-01-29T15:37:34.259Z,13.80
2023-01-29T15:42:44.625Z,12.75
2023-01-29T15:47:46.607Z,12.45
2023-01-29T15:52:49.868Z,12.70
2023-01-29T15:57:51.522Z,12.10
2023-01-29T16:02:53.147Z,13.10
2023-01-29T16:07:55.710Z,12.63
2023-01-29T16:12:57.758Z,12.90
2023-01-29T16:18:00.337Z,11.93
2023-01-29T16:23:02.150Z,12.25
2023-01-29T16:28:04.857Z,12.73
2023-01-29T16:33:07.731Z,12.30
2023-01-29T16:38:35.546Z,12.60
2023-01-29T16:43:48.030Z,12.90
2023-01-29T16:48:49.766Z,11.75
2023-01-29T16:53:58.624Z,11.52
2023-01-29T16:59:00.723Z,11.63
2023-01-29T17:04:06.927Z,10.13
2023-01-29T17:09:08.618Z,10.85
2023-01-29T17:14:16.493Z,16.85
2023-01-29T17:19:20.869Z,11.27
2023-01-29T17:24:22.680Z,9.05
2023-01-29T17:29:26.248Z,9.32
2023-01-29T17:34:27.723Z,6.85
2023-01-29T17:39:29.148Z,7.82
2023-01-29T17:44:30.642Z,7.20
2023-01-29T17:49:35.903Z,6.78
2023-01-29T17:54:37.778Z,6.47
2023-01-29T17:59:39.188Z,6.75
2023-01-29T18:04:40.805Z,9.30
2023-01-29T18:09:43.586Z,9.35
2023-01-29T18:14:45.065Z,9.23
2023-01-29T18:19:46.506Z,9.23
2023-01-29T18:24:47.945Z,9.02
2023-01-29T18:29:50.499Z,9.68
2023-01-29T18:34:51.984Z,9.15
2023-01-29T18:39:53.913Z,9.32
2023-01-29T18:44:55.376Z,11.30
2023-01-29T18:49:56.903Z,9.18
2023-01-29T18:54:58.329Z,10.20
2023-01-29T19:00:00.093Z,10.93
2023-01-29T19:05:02.042Z,10.23
2023-01-29T19:10:06.904Z,9.93
2023-01-29T19:15:08.794Z,9.10
2023-01-29T19:20:10.688Z,8.00
2023-01-29T19:25:12.817Z,9.70
2023-01-29T19:30:14.453Z,9.38
2023-01-29T19:35:16.388Z,9.25
2023-01-29T19:40:18.835Z,9.93
2023-01-29T19:45:49.798Z,8.95
2023-01-29T19:50:53.904Z,8.07
2023-01-29T19:56:05.988Z,7.80
2023-01-29T20:01:12.945Z,7.90
2023-01-29T20:06:16.817Z,6.60
2023-01-29T20:11:19.196Z,6.30
2023-01-29T20:16:21.371Z,6.90
2023-01-29T20:21:22.796Z,5.55
2023-01-29T20:26:24.452Z,5.47
2023-01-29T20:31:25.948Z,6.82
2023-01-29T20:36:27.487Z,6.13
2023-01-29T20:41:28.951Z,6.07
2023-01-29T20:46:31.080Z,6.57
2023-01-29T20:51:32.624Z,5.70
2023-01-29T20:56:37.141Z,6.47
2023-01-29T21:01:39.682Z,6.57
2023-01-29T21:06:41.123Z,5.55
2023-01-29T21:11:44.892Z,6.25
2023-01-29T21:16:46.403Z,6.10
2023-01-29T21:21:47.922Z,5.88
2023-01-29T21:26:49.651Z,6.22
2023-01-29T21:31:51.136Z,5.82
2023-01-29T21:36:52.691Z,7.00
2023-01-29T21:42:12.972Z,5.20
2023-01-29T21:47:14.516Z,6.30
2023-01-29T21:52:16.060Z,6.45
2023-01-29T21:57:17.560Z,7.35
2023-01-29T22:02:19.289Z,6.25
2023-01-29T22:07:20.829Z,5.43
2023-01-29T22:12:22.961Z,5.97
2023-01-29T22:17:24.443Z,5.90
2023-01-29T22:22:25.941Z,6.05
2023-01-29T22:27:27.389Z,5.80
2023-01-29T22:32:28.923Z,6.55
2023-01-29T22:37:30.446Z,5.72
2023-01-29T22:42:31.919Z,6.00
2023-01-29T22:47:33.839Z,6.20
2023-01-29T22:52:42.806Z,5.63
2023-01-29T22:57:48.005Z,5.43
2023-01-29T23:02:50.015Z,4.70
2023-01-29T23:07:51.415Z,5.00
2023-01-29T23:12:52.878Z,5.50
2023-01-29T23:17:54.316Z,5.55
2023-01-29T23:22:55.905Z,4.70
2023-01-29T23:27:57.366Z,4.88
2023-01-29T23:32:58.824Z,4.47
2023-01-29T23:38:00.251Z,4.93
2023-01-29T23:43:01.694Z,4.50
2023-01-29T23:48:03.180Z,4.05
2023-01-29T23:53:04.640Z,4.20
2023-01-29T23:58:06.345Z,4.20
